Anspach/Taunus Airport EDFA

Flugplatz Daten

Name: Anspach/Taunus Airport

Ident: EDFA

Lat: 50,28833389

Long: 8,533888817

Platzhöhe: 1102 ft

IataCode:

City: Anspach

Metar

2018/03/04 22:00
SPJC 042200Z 17012KT CAVOK 23/19 Q1009 NOSIGLVA1313 042200 FF EGGXZQZX EUCBZMFP EUCHZMFP KZMAZQZX KZNYZQZX MDCSZQZX TJZSZQZX TNCFZQZX 042200 SEGUZPZN (FPL-KLM755-IS -B772/H-SDE2E3FGHIJ3J5RWXYZ/LB1D1 -SEGU0110 -N0495F330 TOLAV1 KIMEG DCT UGUPI DCT ANRON DCT SATMI/N0489F350 UM525 MELLA/M083F350 M525 KAVAX DCT 26N055W/M083F370 29N050W 36N040W 41N030W 45N020W 47N015W DCT TAMEL DCT EVBAK DCT GAPLI/N0486F370 N19 SAM UL620 MID UM185 BPK Q295 CLN UL620 REDFA -EHAM1011 EHRD -PBN/A1B1C1D1L1O1S2T1 DOF/180305 REG/PHBQP EET/SKED0033 SKEC0127 TNCF0212 MDCS0235 TJZS0258 LEILA0302 VACHI0303 PANM0311 FRATT0314 CAFFE0322 YIYY0329 KZWY0333 ZABOR0336 KAVAX0354 26N055W0426 29N050W0457 LPPO0602 41N030W0658 EGGX0754 47N015W0822 TAMEL0847 EVBAK0850 EGTT0902 EHAA0954 SEL/DRKS)

Taf

Gewünschte Webcam nicht vorhanden? Dann fügen Sie eine hinzu. Sie wird dann so schnell wie möglich freigeschaltet
Url: Title: